Time;durP1;ratioP1;P1;durP2;ratioP2;P2;SDS_P1;SDS_P2;PMS_P1;PMS_P2;Temp;Humidity;BMP_temperature;BMP_pressure;BME280_temperature;BME280_humidity;BME280_pressure;Samples;Min_cycle;Max_cycle;Signal;HPM_P1;HPM_P2
2024/02/11 00:00:43;;;;;;;32.95;20.75;;;;;;;;;;5063451;28;20590;-80
2024/02/11 00:03:10;;;;;;;37.10;21.30;;;;;;;;;;5046743;28;20052;-80
2024/02/11 00:05:38;;;;;;;31.63;21.08;;;;;;;;;;5047500;28;20053;-79
2024/02/11 00:08:05;;;;;;;38.88;21.88;;;;;;;;;;5062349;28;20562;-80
2024/02/11 00:10:32;;;;;;;32.83;20.42;;;;;;;;;;5064287;28;20049;-80
2024/02/11 00:13:02;;;;;;;34.75;20.90;;;;;;;;;;5054598;28;20080;-80
2024/02/11 00:15:31;;;;;;;33.97;22.30;;;;;;;;;;5063229;28;20064;-80
2024/02/11 00:17:59;;;;;;;30.70;19.70;;;;;;;;;;5062692;28;20056;-80
2024/02/11 00:20:27;;;;;;;39.22;21.73;;;;;;;;;;5057378;28;20056;-80
2024/02/11 00:22:54;;;;;;;32.63;19.15;;;;;;;;;;5056684;28;20051;-80
2024/02/11 00:25:21;;;;;;;34.10;20.33;;;;;;;;;;5058213;28;20362;-80
2024/02/11 00:27:52;;;;;;;27.65;19.15;;;;;;;;;;5066339;28;20052;-80
2024/02/11 00:30:22;;;;;;;34.58;21.83;;;;;;;;;;5058918;28;20507;-80
2024/02/11 00:32:49;;;;;;;32.33;20.40;;;;;;;;;;5043406;28;20080;-81
2024/02/11 00:35:18;;;;;;;32.00;19.65;;;;;;;;;;5060022;28;20052;-81
2024/02/11 00:37:45;;;;;;;34.10;19.98;;;;;;;;;;5061249;28;20075;-81
2024/02/11 00:40:13;;;;;;;30.25;18.65;;;;;;;;;;5062609;28;20485;-80
2024/02/11 00:42:41;;;;;;;27.48;18.05;;;;;;;;;;5063201;28;20055;-81
2024/02/11 00:45:09;;;;;;;26.02;18.17;;;;;;;;;;5046664;28;20120;-81
2024/02/11 00:47:37;;;;;;;27.30;17.83;;;;;;;;;;5046386;28;20067;-81
2024/02/11 00:50:04;;;;;;;32.08;20.08;;;;;;;;;;5062819;28;20461;-81
2024/02/11 00:52:31;;;;;;;30.45;18.50;;;;;;;;;;5046599;28;20052;-81
2024/02/11 00:54:59;;;;;;;29.65;18.60;;;;;;;;;;5062633;28;20518;-80
2024/02/11 00:57:26;;;;;;;27.25;18.42;;;;;;;;;;5062728;28;20044;-80
2024/02/11 00:59:58;;;;;;;29.40;18.10;;;;;;;;;;5046768;28;20053;-80
2024/02/11 01:02:25;;;;;;;28.05;18.23;;;;;;;;;;5046812;28;20092;-80
2024/02/11 01:04:53;;;;;;;28.58;17.88;;;;;;;;;;5062381;28;20118;-80
2024/02/11 01:07:20;;;;;;;24.67;17.60;;;;;;;;;;5062308;28;20056;-81
2024/02/11 01:09:48;;;;;;;26.42;17.58;;;;;;;;;;5062849;28;20049;-80
2024/02/11 01:12:17;;;;;;;31.08;18.88;;;;;;;;;;5062868;28;20422;-80
2024/02/11 01:14:44;;;;;;;23.58;16.80;;;;;;;;;;5066861;28;20095;-80
2024/02/11 01:17:12;;;;;;;27.83;18.17;;;;;;;;;;5051429;28;20067;-79
2024/02/11 01:19:39;;;;;;;26.40;16.73;;;;;;;;;;5067002;28;20045;-80
2024/02/11 01:22:06;;;;;;;26.92;17.33;;;;;;;;;;5046339;28;20112;-80
2024/02/11 01:24:34;;;;;;;27.02;17.38;;;;;;;;;;5046567;28;20053;-80
2024/02/11 01:27:01;;;;;;;27.73;17.38;;;;;;;;;;5046147;28;20140;-81
2024/02/11 01:29:29;;;;;;;25.70;17.10;;;;;;;;;;5046694;28;20523;-80
2024/02/11 01:31:58;;;;;;;25.75;16.88;;;;;;;;;;5046613;28;20076;-81
2024/02/11 01:34:25;;;;;;;26.65;16.55;;;;;;;;;;5062907;28;20053;-80
2024/02/11 01:36:52;;;;;;;27.92;16.90;;;;;;;;;;5062844;28;20359;-80
2024/02/11 01:39:20;;;;;;;24.08;16.73;;;;;;;;;;5062907;28;20056;-80
2024/02/11 01:41:47;;;;;;;27.65;18.15;;;;;;;;;;5062422;28;20482;-80
2024/02/11 01:44:16;;;;;;;27.83;18.65;;;;;;;;;;5070620;28;20491;-80
2024/02/11 01:46:43;;;;;;;26.65;17.65;;;;;;;;;;5061439;28;20064;-80
2024/02/11 01:49:11;;;;;;;29.80;17.88;;;;;;;;;;5062121;28;20053;-80
2024/02/11 01:51:42;;;;;;;27.52;18.02;;;;;;;;;;5061097;28;20052;-80
2024/02/11 01:54:10;;;;;;;28.05;17.67;;;;;;;;;;5045937;28;20052;-80
2024/02/11 01:56:40;;;;;;;30.05;17.38;;;;;;;;;;5045135;28;20064;-80
2024/02/11 01:59:07;;;;;;;23.83;17.27;;;;;;;;;;5045538;28;20392;-81
2024/02/11 02:01:35;;;;;;;27.83;18.13;;;;;;;;;;5045441;28;20534;-81
2024/02/11 02:04:03;;;;;;;27.33;17.40;;;;;;;;;;5045303;28;20057;-81
2024/02/11 02:06:31;;;;;;;28.80;18.42;;;;;;;;;;5044329;28;20075;-81
2024/02/11 02:08:59;;;;;;;27.27;17.88;;;;;;;;;;5035909;28;20060;-80
2024/02/11 02:11:27;;;;;;;31.80;19.02;;;;;;;;;;5053231;28;20045;-81
2024/02/11 02:13:57;;;;;;;33.25;19.60;;;;;;;;;;5038549;28;20107;-80
2024/02/11 02:16:25;;;;;;;30.35;18.70;;;;;;;;;;5039082;28;20056;-81
2024/02/11 02:18:53;;;;;;;27.33;18.33;;;;;;;;;;5041412;28;20057;-80
2024/02/11 02:21:22;;;;;;;34.42;18.77;;;;;;;;;;5041474;28;20136;-80
2024/02/11 02:23:49;;;;;;;30.13;18.30;;;;;;;;;;5057665;28;20053;-80
2024/02/11 02:26:16;;;;;;;30.35;17.95;;;;;;;;;;5061245;28;20049;-80
2024/02/11 02:28:44;;;;;;;28.85;18.23;;;;;;;;;;5044591;28;20048;-80
2024/02/11 02:31:11;;;;;;;28.67;18.35;;;;;;;;;;5054004;28;20081;-80
2024/02/11 02:33:38;;;;;;;29.17;18.40;;;;;;;;;;5045224;28;20495;-80
2024/02/11 02:36:06;;;;;;;26.40;17.38;;;;;;;;;;5060955;28;20059;-80
2024/02/11 02:38:33;;;;;;;28.13;19.23;;;;;;;;;;5062719;28;20057;-80
2024/02/11 02:41:01;;;;;;;30.85;18.60;;;;;;;;;;5056876;28;20116;-80
2024/02/11 02:43:28;;;;;;;28.70;17.95;;;;;;;;;;5081579;28;20570;-80
2024/02/11 02:45:55;;;;;;;29.75;18.63;;;;;;;;;;5064146;28;20113;-80
2024/02/11 02:48:23;;;;;;;28.65;18.70;;;;;;;;;;5064948;28;20560;-80
2024/02/11 02:50:50;;;;;;;28.55;18.70;;;;;;;;;;5049392;28;20055;-80
2024/02/11 02:53:18;;;;;;;27.20;18.55;;;;;;;;;;5048972;28;20053;-80
2024/02/11 02:55:46;;;;;;;26.23;18.48;;;;;;;;;;5048232;28;20049;-80
2024/02/11 02:58:14;;;;;;;29.13;17.90;;;;;;;;;;5065492;28;20045;-80
2024/02/11 03:00:42;;;;;;;27.25;17.65;;;;;;;;;;5064954;28;20064;-80
2024/02/11 03:03:10;;;;;;;27.65;17.27;;;;;;;;;;5064853;28;20140;-80
2024/02/11 03:05:41;;;;;;;28.50;18.08;;;;;;;;;;5048206;28;20085;-80
2024/02/11 03:18:34;;;;;;;29.00;18.13;;;;;;;;;;5065767;28;20146;-81
2024/02/11 03:21:02;;;;;;;29.95;19.30;;;;;;;;;;5049084;28;20064;-80
2024/02/11 03:23:29;;;;;;;25.83;18.20;;;;;;;;;;5052874;28;20078;-80
2024/02/11 03:25:57;;;;;;;31.10;19.48;;;;;;;;;;5049165;28;20084;-80
2024/02/11 03:28:25;;;;;;;23.13;15.30;;;;;;;;;;5049367;28;20465;-80
2024/02/11 03:30:52;;;;;;;19.45;13.15;;;;;;;;;;5052192;28;20079;-80
2024/02/11 03:33:20;;;;;;;9.30;5.85;;;;;;;;;;5054019;28;20060;-80
2024/02/11 03:35:47;;;;;;;3.42;2.58;;;;;;;;;;5084118;28;20045;-79
2024/02/11 03:38:15;;;;;;;3.17;1.73;;;;;;;;;;5050964;28;20049;-79
2024/02/11 03:40:42;;;;;;;3.08;1.95;;;;;;;;;;5051244;28;20048;-80
2024/02/11 03:43:13;;;;;;;2.72;1.25;;;;;;;;;;5085434;28;20057;-80
2024/02/11 03:45:40;;;;;;;1.67;1.17;;;;;;;;;;5051443;28;20060;-80
2024/02/11 03:48:07;;;;;;;1.73;0.80;;;;;;;;;;5049636;28;20079;-80
2024/02/11 03:50:35;;;;;;;1.55;0.95;;;;;;;;;;5066706;28;20562;-80
2024/02/11 03:53:02;;;;;;;0.65;0.20;;;;;;;;;;5065781;28;20061;-80
2024/02/11 03:55:30;;;;;;;0.65;0.20;;;;;;;;;;5047731;28;20053;-79
2024/02/11 03:58:04;;;;;;;0.10;0.08;;;;;;;;;;5046488;28;20049;-80
2024/02/11 04:00:31;;;;;;;0.17;0.10;;;;;;;;;;5048166;28;20473;-79
2024/02/11 04:02:59;;;;;;;0.10;0.10;;;;;;;;;;5063686;28;20061;-80
2024/02/11 04:05:28;;;;;;;0.75;0.10;;;;;;;;;;5064125;28;20084;-80
2024/02/11 04:07:57;;;;;;;0.10;0.10;;;;;;;;;;5048918;28;20060;-79
2024/02/11 04:10:28;;;;;;;0.17;0.10;;;;;;;;;;5083135;28;20048;-79
2024/02/11 04:12:58;;;;;;;0.10;0.10;;;;;;;;;;5082272;28;20053;-79
2024/02/11 04:15:27;;;;;;;0.40;0.10;;;;;;;;;;5050126;28;20080;-80
2024/02/11 04:17:56;;;;;;;0.13;0.13;;;;;;;;;;5060571;28;20024;-79
2024/02/11 04:20:24;;;;;;;0.20;0.20;;;;;;;;;;5053640;28;20080;-79
2024/02/11 04:22:55;;;;;;;1.02;0.10;;;;;;;;;;5068847;28;20056;-80
2024/02/11 04:25:23;;;;;;;0.03;0.03;;;;;;;;;;5048802;28;20060;-79
2024/02/11 04:27:50;;;;;;;0.10;0.10;;;;;;;;;;5048188;28;20053;-79
2024/02/11 04:30:19;;;;;;;0.25;0.17;;;;;;;;;;5048705;28;20129;-79
2024/02/11 04:32:48;;;;;;;0.17;0.10;;;;;;;;;;5075558;28;20056;-80
2024/02/11 04:35:16;;;;;;;0.30;0.20;;;;;;;;;;5048844;28;20077;-79
2024/02/11 04:37:49;;;;;;;1.27;0.15;;;;;;;;;;5064422;28;20419;-80
2024/02/11 04:40:16;;;;;;;0.55;0.30;;;;;;;;;;5049464;28;20045;-79
2024/02/11 04:42:45;;;;;;;0.57;0.38;;;;;;;;;;5066029;28;20049;-80
2024/02/11 04:45:16;;;;;;;0.30;0.20;;;;;;;;;;5064804;28;20056;-80
2024/02/11 04:47:45;;;;;;;0.32;0.30;;;;;;;;;;5064707;28;20063;-81
2024/02/11 04:50:19;;;;;;;0.73;0.73;;;;;;;;;;5064554;28;20132;-80
2024/02/11 04:52:56;;;;;;;0.20;0.20;;;;;;;;;;5063906;28;20057;-80
2024/02/11 04:55:27;;;;;;;0.52;0.20;;;;;;;;;;5080378;28;20049;-80
2024/02/11 04:58:01;;;;;;;0.30;0.30;;;;;;;;;;5063418;28;20045;-80
2024/02/11 05:00:29;;;;;;;0.10;0.10;;;;;;;;;;5048139;28;20055;-80
2024/02/11 05:03:03;;;;;;;0.63;0.30;;;;;;;;;;5080464;28;20075;-80
2024/02/11 05:05:34;;;;;;;0.50;0.50;;;;;;;;;;5048008;28;20053;-80
2024/02/11 05:08:03;;;;;;;2.33;0.38;;;;;;;;;;5064425;28;20063;-80
2024/02/11 05:10:34;;;;;;;0.30;0.30;;;;;;;;;;5065341;28;20049;-80
2024/02/11 05:13:05;;;;;;;0.50;0.50;;;;;;;;;;5064425;28;20052;-80
2024/02/11 05:15:40;;;;;;;0.40;0.40;;;;;;;;;;5047875;28;20077;-80
2024/02/11 05:18:11;;;;;;;0.22;0.20;;;;;;;;;;5060614;28;20064;-80
2024/02/11 05:20:41;;;;;;;0.57;0.40;;;;;;;;;;5060031;28;20049;-80
2024/02/11 05:23:10;;;;;;;0.30;0.30;;;;;;;;;;5080985;28;20045;-80
2024/02/11 05:25:38;;;;;;;1.30;0.40;;;;;;;;;;5051816;28;20588;-80
2024/02/11 05:28:12;;;;;;;1.48;0.40;;;;;;;;;;5039601;28;20048;-80
2024/02/11 05:30:43;;;;;;;0.30;0.20;;;;;;;;;;5080597;28;20487;-80
2024/02/11 05:33:16;;;;;;;0.20;0.20;;;;;;;;;;5079848;28;20057;-80
2024/02/11 05:35:51;;;;;;;0.40;0.20;;;;;;;;;;5063944;28;20053;-80
2024/02/11 05:38:24;;;;;;;0.30;0.30;;;;;;;;;;5064583;28;20053;-80
2024/02/11 05:40:57;;;;;;;0.22;0.22;;;;;;;;;;5064034;28;20113;-81
2024/02/11 05:43:25;;;;;;;0.68;0.57;;;;;;;;;;5078638;28;20060;-80
2024/02/11 05:45:54;;;;;;;1.15;0.20;;;;;;;;;;5060167;28;20057;-80
2024/02/11 05:48:22;;;;;;;0.20;0.10;;;;;;;;;;5077955;28;20055;-81
2024/02/11 05:50:52;;;;;;;0.20;0.17;;;;;;;;;;5061825;28;20084;-80
2024/02/11 05:53:20;;;;;;;0.57;0.20;;;;;;;;;;5045930;28;20442;-80
2024/02/11 05:55:52;;;;;;;0.30;0.30;;;;;;;;;;5078972;28;20049;-80
2024/02/11 05:58:21;;;;;;;;;;;;;;;;;;5079430;28;20048;-80
2024/02/11 06:00:49;;;;;;;0.55;0.22;;;;;;;;;;5062023;28;19964;-80
2024/02/11 06:03:20;;;;;;;0.52;0.30;;;;;;;;;;5079732;28;20044;-80
2024/02/11 06:05:51;;;;;;;0.28;0.28;;;;;;;;;;5079150;28;20077;-80
2024/02/11 06:08:20;;;;;;;1.42;0.30;;;;;;;;;;5063081;28;20060;-80
2024/02/11 06:10:47;;;;;;;0.30;0.20;;;;;;;;;;5046925;28;20073;-80
2024/02/11 06:13:17;;;;;;;0.30;0.30;;;;;;;;;;5067565;28;20136;-80
2024/02/11 06:15:47;;;;;;;0.40;0.40;;;;;;;;;;5067882;28;20072;-80
2024/02/11 06:18:15;;;;;;;1.40;0.90;;;;;;;;;;5083603;28;20060;-80
2024/02/11 06:20:42;;;;;;;1.70;1.48;;;;;;;;;;5083383;28;20048;-80
2024/02/11 06:23:10;;;;;;;1.52;0.65;;;;;;;;;;5083689;28;20067;-80
2024/02/11 06:25:38;;;;;;;1.05;0.38;;;;;;;;;;5049987;28;20107;-81
2024/02/11 06:28:06;;;;;;;0.70;0.57;;;;;;;;;;5065685;28;20075;-80
2024/02/11 06:30:37;;;;;;;0.40;0.40;;;;;;;;;;5083718;28;20063;-80
2024/02/11 06:33:10;;;;;;;2.38;0.40;;;;;;;;;;5068621;28;20044;-80
2024/02/11 06:35:39;;;;;;;0.85;0.80;;;;;;;;;;5085197;28;20048;-80
2024/02/11 06:38:07;;;;;;;0.85;0.50;;;;;;;;;;5090460;28;20120;-80
2024/02/11 06:40:40;;;;;;;0.80;0.52;;;;;;;;;;5090918;28;20056;-80
2024/02/11 06:43:17;;;;;;;0.63;0.50;;;;;;;;;;5074273;28;20053;-80
2024/02/11 06:45:53;;;;;;;0.45;0.40;;;;;;;;;;5074097;28;20064;-80
2024/02/11 06:48:34;;;;;;;1.10;0.80;;;;;;;;;;5073884;28;20057;-80
2024/02/11 06:51:03;;;;;;;3.95;3.08;;;;;;;;;;5072427;28;20048;-80
2024/02/11 06:53:32;;;;;;;3.35;2.35;;;;;;;;;;5056473;28;20040;-80
2024/02/11 06:55:59;;;;;;;2.92;1.95;;;;;;;;;;5071009;28;20099;-80
2024/02/11 06:58:29;;;;;;;1.23;1.13;;;;;;;;;;5054551;28;20053;-80
2024/02/11 07:00:57;;;;;;;1.05;0.95;;;;;;;;;;5070546;28;20133;-80
2024/02/11 07:03:25;;;;;;;0.90;0.80;;;;;;;;;;5070630;28;20131;-80
2024/02/11 07:05:55;;;;;;;0.70;0.70;;;;;;;;;;5054292;28;20143;-80
2024/02/11 07:08:24;;;;;;;0.60;0.55;;;;;;;;;;5056941;28;20049;-80
2024/02/11 07:10:54;;;;;;;1.10;0.80;;;;;;;;;;5046709;28;20056;-79
2024/02/11 07:13:22;;;;;;;0.70;0.70;;;;;;;;;;5054629;28;20049;-81
2024/02/11 07:15:53;;;;;;;0.85;0.70;;;;;;;;;;5055206;28;20414;-80
2024/02/11 07:18:20;;;;;;;1.50;0.80;;;;;;;;;;5038889;28;20091;-80
2024/02/11 07:20:48;;;;;;;2.35;1.00;;;;;;;;;;5072447;28;20056;-80
2024/02/11 07:23:20;;;;;;;1.33;1.00;;;;;;;;;;5087771;28;20044;-80
2024/02/11 07:25:47;;;;;;;1.90;1.00;;;;;;;;;;5088724;28;20110;-80
2024/02/11 07:28:16;;;;;;;2.38;0.95;;;;;;;;;;5048128;28;20053;-81
2024/02/11 07:30:45;;;;;;;1.10;1.00;;;;;;;;;;5073019;28;20577;-80
2024/02/11 07:33:18;;;;;;;2.20;0.98;;;;;;;;;;5045153;28;20053;-80
2024/02/11 07:35:46;;;;;;;2.15;1.50;;;;;;;;;;5079127;28;20072;-79
2024/02/11 07:38:13;;;;;;;2.13;1.80;;;;;;;;;;5079629;28;20056;-80
2024/02/11 07:40:41;;;;;;;2.05;1.70;;;;;;;;;;5061194;28;20045;-80
2024/02/11 07:43:09;;;;;;;3.10;1.70;;;;;;;;;;5058012;28;20053;-80
2024/02/11 07:45:42;;;;;;;4.07;1.60;;;;;;;;;;5058229;28;20072;-80
2024/02/11 07:48:09;;;;;;;;;;;;;;;;;;5059323;28;20056;-80
2024/02/11 07:50:39;;;;;;;3.30;1.80;;;;;;;;;;5057918;28;19920;-80
2024/02/11 07:53:09;;;;;;;2.08;1.40;;;;;;;;;;5042833;28;20080;-80
2024/02/11 07:55:37;;;;;;;3.10;1.50;;;;;;;;;;5075274;28;20103;-80
2024/02/11 07:58:04;;;;;;;1.48;1.27;;;;;;;;;;5075323;28;20063;-80
2024/02/11 08:00:32;;;;;;;3.15;1.65;;;;;;;;;;5058565;28;20049;-80
2024/02/11 08:03:01;;;;;;;2.40;1.33;;;;;;;;;;5058730;28;20092;-80
2024/02/11 08:05:29;;;;;;;3.45;1.73;;;;;;;;;;5058963;28;20060;-80
2024/02/11 08:07:57;;;;;;;1.95;1.70;;;;;;;;;;5076545;28;20053;-80
2024/02/11 08:10:24;;;;;;;1.80;1.65;;;;;;;;;;5060257;28;20057;-80
2024/02/11 08:12:52;;;;;;;3.63;2.40;;;;;;;;;;5060188;28;20418;-80
2024/02/11 08:15:20;;;;;;;5.38;2.10;;;;;;;;;;5060548;28;20045;-80
2024/02/11 08:17:47;;;;;;;4.10;3.15;;;;;;;;;;5076738;28;20652;-80
2024/02/11 08:20:21;;;;;;;4.20;3.03;;;;;;;;;;5060988;28;20106;-80
2024/02/11 08:22:48;;;;;;;3.30;3.00;;;;;;;;;;5062087;28;20117;-80
2024/02/11 08:25:16;;;;;;;3.83;2.63;;;;;;;;;;5061563;28;20063;-80
2024/02/11 08:27:44;;;;;;;3.95;3.00;;;;;;;;;;5060885;28;20498;-80
2024/02/11 08:30:12;;;;;;;3.63;3.17;;;;;;;;;;5076988;28;20106;-80
2024/02/11 08:32:42;;;;;;;3.92;2.78;;;;;;;;;;5060185;28;20045;-80
2024/02/11 08:35:11;;;;;;;4.78;3.08;;;;;;;;;;5059760;28;20049;-80
2024/02/11 08:37:39;;;;;;;3.78;3.10;;;;;;;;;;5077049;28;20391;-80
2024/02/11 08:40:07;;;;;;;5.82;2.75;;;;;;;;;;5060943;28;20517;-80
2024/02/11 08:42:35;;;;;;;7.13;3.28;;;;;;;;;;5077088;28;20060;-80
2024/02/11 08:45:02;;;;;;;4.57;3.22;;;;;;;;;;5078611;28;20462;-80
2024/02/11 08:47:29;;;;;;;8.30;3.53;;;;;;;;;;5063142;28;20144;-80
2024/02/11 08:50:00;;;;;;;6.10;3.10;;;;;;;;;;5077622;28;20057;-80
2024/02/11 08:52:27;;;;;;;8.27;3.70;;;;;;;;;;5064022;28;20083;-80
2024/02/11 08:54:55;;;;;;;5.82;3.00;;;;;;;;;;5063686;28;20512;-80
2024/02/11 08:57:22;;;;;;;5.20;3.72;;;;;;;;;;5062121;28;20473;-80
2024/02/11 08:59:50;;;;;;;7.30;3.75;;;;;;;;;;5077732;28;20055;-80
2024/02/11 09:02:17;;;;;;;7.68;3.53;;;;;;;;;;5044636;28;20501;-80
2024/02/11 09:04:44;;;;;;;4.82;3.40;;;;;;;;;;5077356;28;20071;-80
2024/02/11 09:07:12;;;;;;;4.00;2.45;;;;;;;;;;5044844;28;20091;-79
2024/02/11 09:09:39;;;;;;;4.40;3.05;;;;;;;;;;5044713;28;20059;-80
2024/02/11 09:12:07;;;;;;;4.95;2.83;;;;;;;;;;5059705;28;20478;-79
2024/02/11 09:14:37;;;;;;;4.75;2.35;;;;;;;;;;5060855;28;20625;-80
2024/02/11 09:17:05;;;;;;;5.07;2.65;;;;;;;;;;5060149;28;20173;-80
2024/02/11 09:19:33;;;;;;;4.78;2.95;;;;;;;;;;5042691;28;20051;-79
2024/02/11 09:22:05;;;;;;;5.35;3.05;;;;;;;;;;5069494;28;20053;-79
2024/02/11 09:24:38;;;;;;;;;;;;;;;;;;5054942;28;20059;-79
2024/02/11 09:27:10;;;;;;;4.68;2.60;;;;;;;;;;5052896;28;19927;-79
2024/02/11 09:29:38;;;;;;;4.80;2.60;;;;;;;;;;5038385;28;20057;-79
2024/02/11 09:32:06;;;;;;;5.47;2.97;;;;;;;;;;5070728;28;20482;-80
2024/02/11 09:34:33;;;;;;;5.65;2.95;;;;;;;;;;5055766;28;20045;-79
2024/02/11 09:37:01;;;;;;;4.70;2.42;;;;;;;;;;5056072;28;20045;-80
2024/02/11 09:39:28;;;;;;;3.53;2.65;;;;;;;;;;5065040;28;20558;-79
2024/02/11 09:41:57;;;;;;;4.95;2.60;;;;;;;;;;5073972;28;20148;-80
2024/02/11 09:44:28;;;;;;;5.63;2.63;;;;;;;;;;5059439;28;20057;-79
2024/02/11 09:46:55;;;;;;;7.53;3.40;;;;;;;;;;5058545;28;20061;-79
2024/02/11 09:49:23;;;;;;;4.20;2.85;;;;;;;;;;5059997;28;20080;-79
2024/02/11 09:51:50;;;;;;;3.80;2.67;;;;;;;;;;5076400;28;20076;-79
2024/02/11 09:54:17;;;;;;;8.27;2.92;;;;;;;;;;5060361;28;20136;-79
2024/02/11 09:56:44;;;;;;;3.88;2.25;;;;;;;;;;5076577;28;20057;-80
2024/02/11 09:59:12;;;;;;;3.95;2.35;;;;;;;;;;5077061;28;20084;-80
2024/02/11 10:01:41;;;;;;;2.65;2.42;;;;;;;;;;5061312;28;20122;-79
2024/02/11 10:04:10;;;;;;;3.25;2.45;;;;;;;;;;5061343;28;20227;-79
2024/02/11 10:06:38;;;;;;;4.22;2.28;;;;;;;;;;5060549;28;20510;-79
2024/02/11 10:09:10;;;;;;;4.28;2.85;;;;;;;;;;5060034;28;20049;-79
2024/02/11 10:11:39;;;;;;;5.32;2.42;;;;;;;;;;5060279;28;20112;-79
2024/02/11 10:14:13;;;;;;;6.10;4.68;;;;;;;;;;5060235;28;20044;-80
2024/02/11 10:16:41;;;;;;;7.13;3.83;;;;;;;;;;5073652;28;20055;-79
2024/02/11 10:19:12;;;;;;;3.85;2.80;;;;;;;;;;5075081;28;20053;-79
2024/02/11 10:21:44;;;;;;;6.13;2.63;;;;;;;;;;5077292;28;20045;-80
2024/02/11 10:24:17;;;;;;;4.57;2.72;;;;;;;;;;5081163;28;20084;-80
2024/02/11 10:26:50;;;;;;;4.00;2.40;;;;;;;;;;5036128;28;20136;-79
2024/02/11 10:29:19;;;;;;;5.45;2.80;;;;;;;;;;5066935;28;20135;-79
2024/02/11 10:31:48;;;;;;;7.13;3.20;;;;;;;;;;5067101;28;20053;-79
2024/02/11 10:34:15;;;;;;;6.20;2.60;;;;;;;;;;5051424;28;20053;-79
2024/02/11 10:36:46;;;;;;;7.47;4.00;;;;;;;;;;5052181;28;20049;-79
2024/02/11 10:39:14;;;;;;;16.92;9.63;;;;;;;;;;5043827;28;20049;-79
2024/02/11 10:41:42;;;;;;;28.15;13.32;;;;;;;;;;5071515;28;20084;-79
2024/02/11 10:44:10;;;;;;;9.13;6.10;;;;;;;;;;5038817;28;20110;-79
2024/02/11 10:46:40;;;;;;;7.72;3.13;;;;;;;;;;5072040;28;20049;-79
2024/02/11 10:49:11;;;;;;;3.95;2.88;;;;;;;;;;5072376;28;20099;-79
2024/02/11 10:51:40;;;;;;;7.78;3.25;;;;;;;;;;5039825;28;20112;-79
2024/02/11 10:54:08;;;;;;;3.55;2.70;;;;;;;;;;5041145;28;20057;-80
2024/02/11 10:56:38;;;;;;;5.00;2.85;;;;;;;;;;5057154;28;20105;-79
2024/02/11 10:59:26;;;;;;;5.30;2.90;;;;;;;;;;5042700;28;20055;-79
2024/02/11 11:01:54;;;;;;;5.20;2.63;;;;;;;;;;5060920;28;20057;-79
2024/02/11 11:04:21;;;;;;;3.03;1.95;;;;;;;;;;5060486;28;20053;-78
2024/02/11 11:06:51;;;;;;;5.45;2.50;;;;;;;;;;5060223;28;20049;-79
2024/02/11 11:09:20;;;;;;;4.97;2.85;;;;;;;;;;5047721;28;20080;-79
2024/02/11 11:11:47;;;;;;;5.03;2.53;;;;;;;;;;5064027;28;20045;-79
2024/02/11 11:14:21;;;;;;;4.63;2.60;;;;;;;;;;5063317;28;20411;-79
2024/02/11 11:16:52;;;;;;;3.50;2.25;;;;;;;;;;5079426;28;20052;-78
2024/02/11 11:19:20;;;;;;;4.30;2.67;;;;;;;;;;5079537;28;20136;-79
2024/02/11 11:21:51;;;;;;;2.95;2.00;;;;;;;;;;5062492;28;20045;-79
2024/02/11 11:24:18;;;;;;;4.75;2.17;;;;;;;;;;5063560;28;20079;-79
2024/02/11 11:26:52;;;;;;;3.08;2.13;;;;;;;;;;5062847;28;20148;-79
2024/02/11 11:29:24;;;;;;;3.92;2.15;;;;;;;;;;5063020;28;20079;-79
2024/02/11 11:32:01;;;;;;;3.70;2.17;;;;;;;;;;5046785;28;20057;-79
2024/02/11 11:34:29;;;;;;;3.83;2.72;;;;;;;;;;5079484;28;20057;-79
2024/02/11 11:36:56;;;;;;;2.92;1.90;;;;;;;;;;5063086;28;20160;-78
2024/02/11 11:39:26;;;;;;;6.00;1.80;;;;;;;;;;5063227;28;20116;-79
2024/02/11 11:41:56;;;;;;;2.95;1.92;;;;;;;;;;5062821;28;20065;-79
2024/02/11 11:44:24;;;;;;;3.92;1.83;;;;;;;;;;5046458;28;20117;-79
2024/02/11 11:46:51;;;;;;;2.50;1.30;;;;;;;;;;5062327;28;20053;-78
2024/02/11 11:49:19;;;;;;;1.60;1.20;;;;;;;;;;5061739;28;20111;-79
2024/02/11 11:51:46;;;;;;;2.78;1.48;;;;;;;;;;5061745;28;20075;-79
2024/02/11 11:54:17;;;;;;;4.43;1.50;;;;;;;;;;5059120;28;20131;-78
2024/02/11 11:56:47;;;;;;;1.83;1.60;;;;;;;;;;5053585;28;20541;-79
2024/02/11 11:59:14;;;;;;;2.75;1.45;;;;;;;;;;5053201;28;20396;-79
2024/02/11 12:01:42;;;;;;;3.47;1.27;;;;;;;;;;5054364;28;20054;-79
2024/02/11 12:04:09;;;;;;;3.75;1.35;;;;;;;;;;5039091;28;20492;-79
2024/02/11 12:06:38;;;;;;;2.90;1.70;;;;;;;;;;5056056;28;20056;-79
2024/02/11 12:09:05;;;;;;;4.28;1.45;;;;;;;;;;5073044;28;20057;-79
2024/02/11 12:11:32;;;;;;;7.78;2.72;;;;;;;;;;5073562;28;20561;-78
2024/02/11 12:14:00;;;;;;;2.35;1.60;;;;;;;;;;5057872;28;20513;-79
2024/02/11 12:16:33;;;;;;;2.97;1.25;;;;;;;;;;5058708;28;20061;-78
2024/02/11 12:19:00;;;;;;;3.35;1.40;;;;;;;;;;5059296;28;20499;-78
2024/02/11 12:21:29;;;;;;;2.13;1.42;;;;;;;;;;5059048;28;20049;-79
2024/02/11 12:23:56;;;;;;;3.53;1.02;;;;;;;;;;5076377;28;20606;-78
2024/02/11 12:26:26;;;;;;;1.92;1.15;;;;;;;;;;5059907;28;20048;-78
2024/02/11 12:28:58;;;;;;;1.70;0.80;;;;;;;;;;5076224;28;20514;-78
2024/02/11 12:31:30;;;;;;;1.63;0.75;;;;;;;;;;5060227;28;20064;-79
2024/02/11 12:33:58;;;;;;;1.17;1.08;;;;;;;;;;5076482;28;20076;-78
2024/02/11 12:36:25;;;;;;;2.72;0.73;;;;;;;;;;5059495;28;20060;-78
2024/02/11 12:38:53;;;;;;;3.17;0.90;;;;;;;;;;5060445;28;20419;-78
2024/02/11 12:41:24;;;;;;;0.80;0.80;;;;;;;;;;5076222;28;20104;-78
2024/02/11 12:43:53;;;;;;;1.85;0.90;;;;;;;;;;5060454;28;20053;-78
2024/02/11 12:46:20;;;;;;;1.58;0.80;;;;;;;;;;5042192;28;20053;-79
2024/02/11 12:48:50;;;;;;;2.85;1.30;;;;;;;;;;5076833;28;20044;-79
2024/02/11 12:51:19;;;;;;;2.10;1.08;;;;;;;;;;5043094;28;20426;-78
2024/02/11 12:53:48;;;;;;;2.40;1.30;;;;;;;;;;5043173;28;20055;-78
2024/02/11 12:56:17;;;;;;;2.10;0.85;;;;;;;;;;5058626;28;20108;-78
2024/02/11 12:58:45;;;;;;;2.55;1.02;;;;;;;;;;5043547;28;20055;-78
2024/02/11 13:01:14;;;;;;;2.83;1.05;;;;;;;;;;5060114;28;20060;-78
2024/02/11 13:03:42;;;;;;;1.33;0.80;;;;;;;;;;5059734;28;20419;-78
2024/02/11 13:06:10;;;;;;;1.40;0.90;;;;;;;;;;5043424;28;20063;-78
2024/02/11 13:08:38;;;;;;;1.23;0.82;;;;;;;;;;5059462;28;20102;-78
2024/02/11 13:11:06;;;;;;;0.95;0.70;;;;;;;;;;5043167;28;20107;-78
2024/02/11 13:13:34;;;;;;;0.93;0.80;;;;;;;;;;5076333;28;20418;-78
2024/02/11 13:16:02;;;;;;;0.95;0.60;;;;;;;;;;5076089;28;20048;-79
2024/02/11 13:18:32;;;;;;;2.92;0.70;;;;;;;;;;5076086;28;20105;-78
2024/02/11 13:21:03;;;;;;;1.25;0.73;;;;;;;;;;5058954;28;20128;-78
2024/02/11 13:23:31;;;;;;;0.75;0.45;;;;;;;;;;5060273;28;20052;-78
2024/02/11 13:25:59;;;;;;;2.22;0.80;;;;;;;;;;5044109;28;20053;-78
2024/02/11 13:28:27;;;;;;;1.45;0.60;;;;;;;;;;5062303;28;20049;-79
2024/02/11 13:30:59;;;;;;;1.65;0.77;;;;;;;;;;5052539;28;20080;-78
2024/02/11 13:33:44;;;;;;;1.90;0.63;;;;;;;;;;5051887;28;20587;-78
2024/02/11 13:36:12;;;;;;;0.85;0.47;;;;;;;;;;5051652;28;20120;-79
2024/02/11 13:38:40;;;;;;;0.80;0.55;;;;;;;;;;5070024;28;20101;-78
2024/02/11 13:41:10;;;;;;;3.58;1.00;;;;;;;;;;5071253;28;20254;-79
2024/02/11 13:43:38;;;;;;;1.38;0.73;;;;;;;;;;5055623;28;20059;-79
2024/02/11 13:46:12;;;;;;;1.83;0.90;;;;;;;;;;5055699;28;20057;-78
2024/02/11 13:48:41;;;;;;;0.45;0.40;;;;;;;;;;5072215;28;20051;-78
2024/02/11 13:51:13;;;;;;;1.10;0.90;;;;;;;;;;5071295;28;20060;-79
2024/02/11 13:53:42;;;;;;;1.10;0.70;;;;;;;;;;5055250;28;20049;-78
2024/02/11 13:56:12;;;;;;;2.15;0.90;;;;;;;;;;5056213;28;20072;-79
2024/02/11 13:58:41;;;;;;;1.15;0.85;;;;;;;;;;5073839;28;20053;-78
2024/02/11 14:01:10;;;;;;;1.35;0.57;;;;;;;;;;5073209;28;20045;-78
2024/02/11 14:03:39;;;;;;;1.10;0.50;;;;;;;;;;5074046;28;20060;-78
2024/02/11 14:06:07;;;;;;;1.75;0.60;;;;;;;;;;5056588;28;20059;-78
2024/02/11 14:08:34;;;;;;;2.08;1.13;;;;;;;;;;5040637;28;20117;-79
2024/02/11 14:11:03;;;;;;;2.05;1.15;;;;;;;;;;5073724;28;20465;-79
2024/02/11 14:13:31;;;;;;;6.90;3.42;;;;;;;;;;5073924;28;20072;-79
2024/02/11 14:15:59;;;;;;;3.20;2.00;;;;;;;;;;5074045;28;20073;-79
2024/02/11 14:18:27;;;;;;;2.70;2.10;;;;;;;;;;5057878;28;20568;-78
2024/02/11 14:20:55;;;;;;;2.40;1.10;;;;;;;;;;5059260;28;20052;-79
2024/02/11 14:23:24;;;;;;;1.40;0.90;;;;;;;;;;5074758;28;20448;-79
2024/02/11 14:25:52;;;;;;;1.65;0.85;;;;;;;;;;5058384;28;20056;-79
2024/02/11 14:28:19;;;;;;;1.30;1.13;;;;;;;;;;5073685;28;20120;-79
2024/02/11 14:30:46;;;;;;;1.25;0.90;;;;;;;;;;5055037;28;20067;-78
2024/02/11 14:33:14;;;;;;;1.20;0.77;;;;;;;;;;5053130;28;20049;-78
2024/02/11 14:35:41;;;;;;;0.95;0.60;;;;;;;;;;5055344;28;20102;-79
2024/02/11 14:38:10;;;;;;;1.63;0.60;;;;;;;;;;5071715;28;20044;-78
2024/02/11 14:40:38;;;;;;;0.60;0.47;;;;;;;;;;5072400;28;20049;-78
2024/02/11 14:43:08;;;;;;;0.80;0.60;;;;;;;;;;5057496;28;20045;-78
2024/02/11 14:45:36;;;;;;;1.00;0.60;;;;;;;;;;5058618;28;20045;-79
2024/02/11 14:48:04;;;;;;;0.65;0.50;;;;;;;;;;5056568;28;20140;-78
2024/02/11 14:50:31;;;;;;;1.30;0.60;;;;;;;;;;5073216;28;20554;-78
2024/02/11 14:53:00;;;;;;;1.55;0.80;;;;;;;;;;5070549;28;20208;-77
2024/02/11 14:55:28;;;;;;;2.78;0.98;;;;;;;;;;5057186;28;20045;-79
2024/02/11 14:57:57;;;;;;;2.97;1.30;;;;;;;;;;5057827;28;20090;-78